Portada
METAR-TAF:

METAR-TAF

Aeroports :

Cozumel, Mèxic

latitud: 20-32N, longitud: 086-56W, altitud: 5 m

Observació

L'informe es va fer fa 8 hores i 19 minuts, a les 01:47 UTC
Vent 5 kt del Est/Nord-Est
Temperatura 27°C
Humitat 84%
Pressió 1016 hPa
Visibilitat: 9.7 km
Cel clar

METAR: MMCZ 050147Z 07005KT 6SM SKC 27/24 A2999 RMK SC CI

Hora: 05:06 (10:06 UTC)

Pronòstic

L'informe es va fer fa 4 hores i 53 minuts, a les 05:13 UTC
Pronòstic vàlid del 05 a les 06 UTC al 06 a les 12 UTC
Vent 5 kt del Est
Visibilitat: 9.7 km
Núvols disperses a una alçada de 1500 ft
calitja
A partir de les 05 a les 1800 UTC
Vent 10 kt del Est/Sud-Est
Visibilitat: 10 km
Cel ennuvolat a una alçada de 1500 ft
A partir de les 06 a les 0600 UTC
Vent 5 kt del Est
Visibilitat: 10 km
Núvols disperses a una alçada de 1500 ft

TAF: MMCZ 050513Z 0506/0612 09005KT 6SM HZ SCT015 FM051800 12010KT P6SM BKN015 FM060600 09005KT P6SM SCT015

Observacions i pronòstics meteorològics de més de 4000 aeroports (METAR i TAF).

Les estacions disponibles són els punts grocs i vermells al mapa.

Posi el ratolí al punt desitjat per veure el nom de l'estació.

Feu clic per veure les observacions i els pronòstics meteorològics.

Per canviar el mapa: feu clic els botons verds amb una creu de color negre per apropar; al botó verd amb un guió per allunyar la imatge; o en les fletxes verdes per a mapes adjacents.


METAR-TAF: